sensor_id;sensor_type;location;lat;lon;timestamp;temperature;humidity
20498;DHT22;10407;53.238;10.448;2022-12-11T00:00:28;0.70;99.90
20498;DHT22;10407;53.238;10.448;2022-12-11T00:02:55;0.70;99.90
20498;DHT22;10407;53.238;10.448;2022-12-11T00:05:23;0.70;99.90
20498;DHT22;10407;53.238;10.448;2022-12-11T00:07:50;0.50;99.90
20498;DHT22;10407;53.238;10.448;2022-12-11T00:10:37;0.40;99.90
20498;DHT22;10407;53.238;10.448;2022-12-11T00:13:05;0.50;99.90
20498;DHT22;10407;53.238;10.448;2022-12-11T00:15:32;0.50;99.90
20498;DHT22;10407;53.238;10.448;2022-12-11T00:18:00;0.60;99.90
20498;DHT22;10407;53.238;10.448;2022-12-11T00:20:28;0.70;99.90
20498;DHT22;10407;53.238;10.448;2022-12-11T00:22:56;0.60;99.90
20498;DHT22;10407;53.238;10.448;2022-12-11T00:25:24;0.50;99.90
20498;DHT22;10407;53.238;10.448;2022-12-11T00:27:51;0.60;99.90
20498;DHT22;10407;53.238;10.448;2022-12-11T00:30:18;0.70;99.90
20498;DHT22;10407;53.238;10.448;2022-12-11T00:32:46;0.60;99.90
20498;DHT22;10407;53.238;10.448;2022-12-11T00:35:13;0.60;99.90
20498;DHT22;10407;53.238;10.448;2022-12-11T00:37:41;0.60;99.90
20498;DHT22;10407;53.238;10.448;2022-12-11T00:40:09;0.50;99.90
20498;DHT22;10407;53.238;10.448;2022-12-11T00:42:37;0.60;99.90
20498;DHT22;10407;53.238;10.448;2022-12-11T00:45:05;0.70;99.90
20498;DHT22;10407;53.238;10.448;2022-12-11T00:47:33;0.70;99.90
20498;DHT22;10407;53.238;10.448;2022-12-11T00:50:00;0.70;99.90
20498;DHT22;10407;53.238;10.448;2022-12-11T00:52:28;0.70;99.90
20498;DHT22;10407;53.238;10.448;2022-12-11T00:54:55;0.60;99.90
20498;DHT22;10407;53.238;10.448;2022-12-11T00:57:23;0.60;99.90
20498;DHT22;10407;53.238;10.448;2022-12-11T00:59:50;0.60;99.90
20498;DHT22;10407;53.238;10.448;2022-12-11T01:02:18;0.60;99.90
20498;DHT22;10407;53.238;10.448;2022-12-11T01:04:45;0.60;99.90
20498;DHT22;10407;53.238;10.448;2022-12-11T01:07:13;0.70;99.90
20498;DHT22;10407;53.238;10.448;2022-12-11T01:09:40;0.70;99.90
20498;DHT22;10407;53.238;10.448;2022-12-11T01:12:25;0.50;99.90
20498;DHT22;10407;53.238;10.448;2022-12-11T01:14:54;0.60;99.90
20498;DHT22;10407;53.238;10.448;2022-12-11T01:17:21;0.60;99.90
20498;DHT22;10407;53.238;10.448;2022-12-11T01:19:49;0.60;99.90
20498;DHT22;10407;53.238;10.448;2022-12-11T01:22:16;0.70;99.90
20498;DHT22;10407;53.238;10.448;2022-12-11T01:24:44;0.60;99.90
20498;DHT22;10407;53.238;10.448;2022-12-11T01:27:11;0.50;99.90
20498;DHT22;10407;53.238;10.448;2022-12-11T01:29:39;0.60;99.90
20498;DHT22;10407;53.238;10.448;2022-12-11T01:32:06;0.60;99.90
20498;DHT22;10407;53.238;10.448;2022-12-11T01:34:34;0.60;99.90
20498;DHT22;10407;53.238;10.448;2022-12-11T01:37:01;0.50;99.90
20498;DHT22;10407;53.238;10.448;2022-12-11T01:39:29;-0.10;99.90
20498;DHT22;10407;53.238;10.448;2022-12-11T01:41:58;-0.40;99.90
20498;DHT22;10407;53.238;10.448;2022-12-11T01:46:56;-0.30;99.90
20498;DHT22;10407;53.238;10.448;2022-12-11T01:49:25;-0.20;99.90
20498;DHT22;10407;53.238;10.448;2022-12-11T01:51:59;0.00;99.90
20498;DHT22;10407;53.238;10.448;2022-12-11T01:54:27;0.30;99.90
20498;DHT22;10407;53.238;10.448;2022-12-11T01:56:58;0.50;99.90
20498;DHT22;10407;53.238;10.448;2022-12-11T01:59:28;0.50;99.90
20498;DHT22;10407;53.238;10.448;2022-12-11T02:02:02;0.50;99.90
20498;DHT22;10407;53.238;10.448;2022-12-11T02:04:30;0.40;99.90
20498;DHT22;10407;53.238;10.448;2022-12-11T02:06:59;0.50;99.90
20498;DHT22;10407;53.238;10.448;2022-12-11T02:09:29;0.40;99.90
20498;DHT22;10407;53.238;10.448;2022-12-11T02:18:01;0.50;99.90
20498;DHT22;10407;53.238;10.448;2022-12-11T02:20:33;0.50;99.90
20498;DHT22;10407;53.238;10.448;2022-12-11T02:29:00;0.50;99.90
20498;DHT22;10407;53.238;10.448;2022-12-11T02:31:06;0.50;99.90
20498;DHT22;10407;53.238;10.448;2022-12-11T02:33:38;0.60;99.90
20498;DHT22;10407;53.238;10.448;2022-12-11T02:36:05;0.50;99.90
20498;DHT22;10407;53.238;10.448;2022-12-11T02:38:37;0.50;99.90
20498;DHT22;10407;53.238;10.448;2022-12-11T02:41:06;0.40;99.90
20498;DHT22;10407;53.238;10.448;2022-12-11T02:43:36;0.50;99.90
20498;DHT22;10407;53.238;10.448;2022-12-11T02:46:06;0.50;99.90
20498;DHT22;10407;53.238;10.448;2022-12-11T02:48:35;0.10;99.90
20498;DHT22;10407;53.238;10.448;2022-12-11T02:51:05;0.30;99.90
20498;DHT22;10407;53.238;10.448;2022-12-11T02:53:36;0.40;99.90
20498;DHT22;10407;53.238;10.448;2022-12-11T02:56:17;0.40;99.90
20498;DHT22;10407;53.238;10.448;2022-12-11T02:58:50;0.50;99.90
20498;DHT22;10407;53.238;10.448;2022-12-11T03:01:18;0.50;99.90
20498;DHT22;10407;53.238;10.448;2022-12-11T03:03:45;0.10;99.90
20498;DHT22;10407;53.238;10.448;2022-12-11T03:06:15;0.20;99.90
20498;DHT22;10407;53.238;10.448;2022-12-11T03:08:44;0.20;99.90
20498;DHT22;10407;53.238;10.448;2022-12-11T03:11:12;0.40;99.90
20498;DHT22;10407;53.238;10.448;2022-12-11T03:13:41;0.30;99.90
20498;DHT22;10407;53.238;10.448;2022-12-11T03:22:40;0.40;99.90
20498;DHT22;10407;53.238;10.448;2022-12-11T03:24:33;0.40;99.90
20498;DHT22;10407;53.238;10.448;2022-12-11T03:27:02;0.40;99.90
20498;DHT22;10407;53.238;10.448;2022-12-11T03:29:36;0.40;99.90
20498;DHT22;10407;53.238;10.448;2022-12-11T03:32:06;0.20;99.90
20498;DHT22;10407;53.238;10.448;2022-12-11T03:34:45;0.20;99.90
20498;DHT22;10407;53.238;10.448;2022-12-11T03:37:13;0.30;99.90
20498;DHT22;10407;53.238;10.448;2022-12-11T03:39:45;0.40;99.90
20498;DHT22;10407;53.238;10.448;2022-12-11T03:42:13;0.30;99.90
20498;DHT22;10407;53.238;10.448;2022-12-11T03:44:45;0.20;99.90
20498;DHT22;10407;53.238;10.448;2022-12-11T03:47:16;0.30;99.90
20498;DHT22;10407;53.238;10.448;2022-12-11T03:49:44;0.40;99.90
20498;DHT22;10407;53.238;10.448;2022-12-11T03:52:13;0.30;99.90
20498;DHT22;10407;53.238;10.448;2022-12-11T03:54:44;0.30;99.90
20498;DHT22;10407;53.238;10.448;2022-12-11T03:57:15;0.30;99.90
20498;DHT22;10407;53.238;10.448;2022-12-11T03:59:43;0.30;99.90
20498;DHT22;10407;53.238;10.448;2022-12-11T04:02:10;0.20;99.90
20498;DHT22;10407;53.238;10.448;2022-12-11T04:04:39;-0.30;99.90
20498;DHT22;10407;53.238;10.448;2022-12-11T04:07:08;-0.20;99.90
20498;DHT22;10407;53.238;10.448;2022-12-11T04:09:35;0.10;99.90
20498;DHT22;10407;53.238;10.448;2022-12-11T04:12:03;0.20;99.90
20498;DHT22;10407;53.238;10.448;2022-12-11T04:14:31;0.00;99.90
20498;DHT22;10407;53.238;10.448;2022-12-11T04:17:16;0.00;99.90
20498;DHT22;10407;53.238;10.448;2022-12-11T04:19:45;0.10;99.90
20498;DHT22;10407;53.238;10.448;2022-12-11T04:22:31;0.30;99.90
20498;DHT22;10407;53.238;10.448;2022-12-11T04:25:17;0.30;99.90
20498;DHT22;10407;53.238;10.448;2022-12-11T04:27:44;0.30;99.90
20498;DHT22;10407;53.238;10.448;2022-12-11T04:30:22;0.10;99.90
20498;DHT22;10407;53.238;10.448;2022-12-11T04:32:46;0.10;99.90
20498;DHT22;10407;53.238;10.448;2022-12-11T04:35:14;0.00;99.90
20498;DHT22;10407;53.238;10.448;2022-12-11T04:37:42;-0.10;99.90
20498;DHT22;10407;53.238;10.448;2022-12-11T04:40:12;-0.70;99.90
20498;DHT22;10407;53.238;10.448;2022-12-11T04:42:40;-0.40;99.90
20498;DHT22;10407;53.238;10.448;2022-12-11T04:45:09;-0.30;99.90
20498;DHT22;10407;53.238;10.448;2022-12-11T04:47:37;-0.20;99.90
20498;DHT22;10407;53.238;10.448;2022-12-11T04:50:07;0.00;99.90
20498;DHT22;10407;53.238;10.448;2022-12-11T04:52:35;-0.10;99.90
20498;DHT22;10407;53.238;10.448;2022-12-11T04:55:04;0.10;99.90
20498;DHT22;10407;53.238;10.448;2022-12-11T04:57:32;0.00;99.90
20498;DHT22;10407;53.238;10.448;2022-12-11T05:00:01;-0.30;99.90
20498;DHT22;10407;53.238;10.448;2022-12-11T05:02:32;-0.20;99.90
20498;DHT22;10407;53.238;10.448;2022-12-11T05:04:59;-0.20;99.90
20498;DHT22;10407;53.238;10.448;2022-12-11T05:07:26;-0.50;99.90
20498;DHT22;10407;53.238;10.448;2022-12-11T05:09:54;-0.40;99.90
20498;DHT22;10407;53.238;10.448;2022-12-11T05:12:21;-0.30;99.90
20498;DHT22;10407;53.238;10.448;2022-12-11T05:14:53;-0.40;99.90
20498;DHT22;10407;53.238;10.448;2022-12-11T05:17:21;-0.80;99.90
20498;DHT22;10407;53.238;10.448;2022-12-11T05:19:50;-0.70;99.90
20498;DHT22;10407;53.238;10.448;2022-12-11T05:22:18;-0.70;99.90
20498;DHT22;10407;53.238;10.448;2022-12-11T05:24:45;-0.60;99.90
20498;DHT22;10407;53.238;10.448;2022-12-11T05:27:13;-0.60;99.90
20498;DHT22;10407;53.238;10.448;2022-12-11T05:29:40;-0.60;99.90
20498;DHT22;10407;53.238;10.448;2022-12-11T05:32:08;-0.80;99.90
20498;DHT22;10407;53.238;10.448;2022-12-11T05:34:35;-0.70;99.90
20498;DHT22;10407;53.238;10.448;2022-12-11T05:37:03;-0.70;99.90
20498;DHT22;10407;53.238;10.448;2022-12-11T05:39:30;-0.90;99.90
20498;DHT22;10407;53.238;10.448;2022-12-11T05:41:58;-0.80;99.90
20498;DHT22;10407;53.238;10.448;2022-12-11T05:44:26;-0.80;99.90
20498;DHT22;10407;53.238;10.448;2022-12-11T05:46:53;-0.80;99.90
20498;DHT22;10407;53.238;10.448;2022-12-11T05:49:21;-0.80;99.90
20498;DHT22;10407;53.238;10.448;2022-12-11T05:51:48;-0.90;99.90
20498;DHT22;10407;53.238;10.448;2022-12-11T05:54:16;-1.00;99.90
20498;DHT22;10407;53.238;10.448;2022-12-11T05:56:44;-1.00;99.90
20498;DHT22;10407;53.238;10.448;2022-12-11T05:59:11;-1.10;99.90
20498;DHT22;10407;53.238;10.448;2022-12-11T06:01:41;-1.20;99.90
20498;DHT22;10407;53.238;10.448;2022-12-11T06:04:10;-1.20;99.90
20498;DHT22;10407;53.238;10.448;2022-12-11T06:06:38;-1.30;99.90
20498;DHT22;10407;53.238;10.448;2022-12-11T06:09:06;-1.40;99.90
20498;DHT22;10407;53.238;10.448;2022-12-11T06:11:34;-1.50;99.90
20498;DHT22;10407;53.238;10.448;2022-12-11T06:14:03;-1.70;99.90
20498;DHT22;10407;53.238;10.448;2022-12-11T06:16:31;-1.70;99.90
20498;DHT22;10407;53.238;10.448;2022-12-11T06:18:58;-1.70;99.90
20498;DHT22;10407;53.238;10.448;2022-12-11T06:21:30;-1.60;99.90
20498;DHT22;10407;53.238;10.448;2022-12-11T06:24:01;-1.60;99.90
20498;DHT22;10407;53.238;10.448;2022-12-11T06:26:29;-1.60;99.90
20498;DHT22;10407;53.238;10.448;2022-12-11T06:28:58;-1.70;99.90
20498;DHT22;10407;53.238;10.448;2022-12-11T06:31:25;-2.00;99.90
20498;DHT22;10407;53.238;10.448;2022-12-11T06:33:53;-1.80;99.90
20498;DHT22;10407;53.238;10.448;2022-12-11T06:36:22;-2.20;99.90
20498;DHT22;10407;53.238;10.448;2022-12-11T06:38:51;-2.10;99.90
20498;DHT22;10407;53.238;10.448;2022-12-11T06:41:19;-2.10;99.90
20498;DHT22;10407;53.238;10.448;2022-12-11T06:43:46;-2.00;99.90
20498;DHT22;10407;53.238;10.448;2022-12-11T06:46:16;-2.00;99.90
20498;DHT22;10407;53.238;10.448;2022-12-11T06:48:44;-2.10;99.90
20498;DHT22;10407;53.238;10.448;2022-12-11T06:51:15;-2.00;99.90
20498;DHT22;10407;53.238;10.448;2022-12-11T06:53:44;-2.10;99.90
20498;DHT22;10407;53.238;10.448;2022-12-11T06:56:13;-2.00;99.90
20498;DHT22;10407;53.238;10.448;2022-12-11T06:58:42;-2.10;99.90
20498;DHT22;10407;53.238;10.448;2022-12-11T07:01:20;-2.10;99.90
20498;DHT22;10407;53.238;10.448;2022-12-11T07:03:44;-2.10;99.90
20498;DHT22;10407;53.238;10.448;2022-12-11T07:06:12;-2.10;99.90
20498;DHT22;10407;53.238;10.448;2022-12-11T07:08:40;-2.10;99.90
20498;DHT22;10407;53.238;10.448;2022-12-11T07:11:10;-2.20;99.90
20498;DHT22;10407;53.238;10.448;2022-12-11T07:13:38;-2.20;99.90
20498;DHT22;10407;53.238;10.448;2022-12-11T07:16:09;-2.20;99.90
20498;DHT22;10407;53.238;10.448;2022-12-11T07:18:46;-2.30;99.90
20498;DHT22;10407;53.238;10.448;2022-12-11T07:21:07;-2.40;99.90
20498;DHT22;10407;53.238;10.448;2022-12-11T07:23:36;-2.30;99.90
20498;DHT22;10407;53.238;10.448;2022-12-11T07:26:05;-2.30;99.90
20498;DHT22;10407;53.238;10.448;2022-12-11T07:28:33;-2.20;99.90
20498;DHT22;10407;53.238;10.448;2022-12-11T07:31:11;-2.20;99.90
20498;DHT22;10407;53.238;10.448;2022-12-11T07:33:35;-2.20;99.90
20498;DHT22;10407;53.238;10.448;2022-12-11T07:36:07;-2.20;99.90
20498;DHT22;10407;53.238;10.448;2022-12-11T07:38:36;-2.20;99.90
20498;DHT22;10407;53.238;10.448;2022-12-11T07:41:05;-2.10;99.90
20498;DHT22;10407;53.238;10.448;2022-12-11T07:43:34;-2.00;99.90
20498;DHT22;10407;53.238;10.448;2022-12-11T07:46:09;-2.00;99.90
20498;DHT22;10407;53.238;10.448;2022-12-11T07:48:34;-2.10;99.90
20498;DHT22;10407;53.238;10.448;2022-12-11T07:51:24;-2.10;99.90
20498;DHT22;10407;53.238;10.448;2022-12-11T07:53:50;-2.00;99.90
20498;DHT22;10407;53.238;10.448;2022-12-11T07:56:18;-1.90;99.90
20498;DHT22;10407;53.238;10.448;2022-12-11T07:58:46;-1.80;99.90
20498;DHT22;10407;53.238;10.448;2022-12-11T08:01:25;-1.70;99.90
20498;DHT22;10407;53.238;10.448;2022-12-11T08:03:54;-1.50;99.90
20498;DHT22;10407;53.238;10.448;2022-12-11T08:06:27;-1.50;99.90
20498;DHT22;10407;53.238;10.448;2022-12-11T08:08:56;-1.30;99.90
20498;DHT22;10407;53.238;10.448;2022-12-11T08:11:25;-1.10;99.90
20498;DHT22;10407;53.238;10.448;2022-12-11T08:13:54;-1.10;99.90
20498;DHT22;10407;53.238;10.448;2022-12-11T08:16:22;-1.40;99.90
20498;DHT22;10407;53.238;10.448;2022-12-11T08:18:50;-1.30;99.90
20498;DHT22;10407;53.238;10.448;2022-12-11T08:21:20;-1.10;99.90
20498;DHT22;10407;53.238;10.448;2022-12-11T08:23:49;-1.00;99.90
20498;DHT22;10407;53.238;10.448;2022-12-11T08:26:23;-0.80;99.90
20498;DHT22;10407;53.238;10.448;2022-12-11T08:28:50;-0.70;99.90
20498;DHT22;10407;53.238;10.448;2022-12-11T08:31:18;-0.50;99.90
20498;DHT22;10407;53.238;10.448;2022-12-11T08:33:48;-0.50;99.90
20498;DHT22;10407;53.238;10.448;2022-12-11T08:36:19;-0.30;99.90
20498;DHT22;10407;53.238;10.448;2022-12-11T08:38:47;-0.40;99.90
20498;DHT22;10407;53.238;10.448;2022-12-11T08:41:17;-0.30;99.90
20498;DHT22;10407;53.238;10.448;2022-12-11T08:44:04;-0.10;99.90
20498;DHT22;10407;53.238;10.448;2022-12-11T08:46:32;0.30;99.90
20498;DHT22;10407;53.238;10.448;2022-12-11T08:49:00;0.40;99.90
20498;DHT22;10407;53.238;10.448;2022-12-11T08:51:29;0.30;99.90
20498;DHT22;10407;53.238;10.448;2022-12-11T08:53:57;0.40;99.90
20498;DHT22;10407;53.238;10.448;2022-12-11T08:56:27;0.70;99.90
20498;DHT22;10407;53.238;10.448;2022-12-11T08:58:54;0.90;99.90
20498;DHT22;10407;53.238;10.448;2022-12-11T09:01:24;0.80;99.90
20498;DHT22;10407;53.238;10.448;2022-12-11T09:03:53;0.90;99.90
20498;DHT22;10407;53.238;10.448;2022-12-11T09:06:22;1.10;99.90
20498;DHT22;10407;53.238;10.448;2022-12-11T09:08:51;1.10;99.90
20498;DHT22;10407;53.238;10.448;2022-12-11T09:11:22;1.50;99.90
20498;DHT22;10407;53.238;10.448;2022-12-11T09:13:50;1.50;99.90
20498;DHT22;10407;53.238;10.448;2022-12-11T09:16:21;1.60;99.90
20498;DHT22;10407;53.238;10.448;2022-12-11T09:18:50;1.50;99.90
20498;DHT22;10407;53.238;10.448;2022-12-11T09:21:21;1.50;99.90
20498;DHT22;10407;53.238;10.448;2022-12-11T09:23:51;1.50;99.90
20498;DHT22;10407;53.238;10.448;2022-12-11T09:26:18;1.00;99.90
20498;DHT22;10407;53.238;10.448;2022-12-11T09:28:46;1.00;99.90
20498;DHT22;10407;53.238;10.448;2022-12-11T09:31:21;0.70;99.90
20498;DHT22;10407;53.238;10.448;2022-12-11T09:33:50;0.90;99.90
20498;DHT22;10407;53.238;10.448;2022-12-11T09:36:18;0.70;99.90
20498;DHT22;10407;53.238;10.448;2022-12-11T09:38:46;1.00;99.90
20498;DHT22;10407;53.238;10.448;2022-12-11T09:46:46;1.50;99.90
20498;DHT22;10407;53.238;10.448;2022-12-11T09:49:22;1.70;99.90
20498;DHT22;10407;53.238;10.448;2022-12-11T09:51:49;1.00;99.90
20498;DHT22;10407;53.238;10.448;2022-12-11T09:54:16;0.90;99.90
20498;DHT22;10407;53.238;10.448;2022-12-11T10:00:12;0.90;99.90
20498;DHT22;10407;53.238;10.448;2022-12-11T10:05:06;1.90;99.90
20498;DHT22;10407;53.238;10.448;2022-12-11T10:07:50;2.00;99.90
20498;DHT22;10407;53.238;10.448;2022-12-11T10:10:42;1.30;99.90
20498;DHT22;10407;53.238;10.448;2022-12-11T10:17:08;2.00;99.90
20498;DHT22;10407;53.238;10.448;2022-12-11T10:18:44;1.90;99.90
20498;DHT22;10407;53.238;10.448;2022-12-11T10:21:13;2.10;99.90
20498;DHT22;10407;53.238;10.448;2022-12-11T10:23:50;2.20;99.90
20498;DHT22;10407;53.238;10.448;2022-12-11T10:26:20;2.20;99.90
20498;DHT22;10407;53.238;10.448;2022-12-11T10:28:49;2.20;99.90
20498;DHT22;10407;53.238;10.448;2022-12-11T10:31:19;2.20;99.90
20498;DHT22;10407;53.238;10.448;2022-12-11T10:33:58;1.70;99.90
20498;DHT22;10407;53.238;10.448;2022-12-11T10:36:36;1.70;99.90
20498;DHT22;10407;53.238;10.448;2022-12-11T10:39:17;1.50;99.90
20498;DHT22;10407;53.238;10.448;2022-12-11T10:41:44;1.80;99.90
20498;DHT22;10407;53.238;10.448;2022-12-11T10:44:20;2.10;99.90
20498;DHT22;10407;53.238;10.448;2022-12-11T10:49:34;2.10;99.90
20498;DHT22;10407;53.238;10.448;2022-12-11T10:52:10;2.20;99.90
20498;DHT22;10407;53.238;10.448;2022-12-11T10:54:43;2.00;99.90
20498;DHT22;10407;53.238;10.448;2022-12-11T10:57:14;1.80;99.90
20498;DHT22;10407;53.238;10.448;2022-12-11T10:59:46;1.90;99.90
20498;DHT22;10407;53.238;10.448;2022-12-11T11:02:26;1.90;99.90
20498;DHT22;10407;53.238;10.448;2022-12-11T11:04:57;1.90;99.90
20498;DHT22;10407;53.238;10.448;2022-12-11T11:07:29;2.00;99.90
20498;DHT22;10407;53.238;10.448;2022-12-11T11:12:41;2.10;99.90
20498;DHT22;10407;53.238;10.448;2022-12-11T11:15:18;2.20;99.90
20498;DHT22;10407;53.238;10.448;2022-12-11T11:17:51;2.00;99.90
20498;DHT22;10407;53.238;10.448;2022-12-11T11:20:19;2.10;99.90
20498;DHT22;10407;53.238;10.448;2022-12-11T11:22:49;2.00;99.90
20498;DHT22;10407;53.238;10.448;2022-12-11T11:25:20;2.00;99.90
20498;DHT22;10407;53.238;10.448;2022-12-11T11:27:51;2.10;99.90
20498;DHT22;10407;53.238;10.448;2022-12-11T11:30:27;1.70;99.90
20498;DHT22;10407;53.238;10.448;2022-12-11T11:33:03;2.00;99.90
20498;DHT22;10407;53.238;10.448;2022-12-11T11:35:32;2.10;99.90
20498;DHT22;10407;53.238;10.448;2022-12-11T11:38:20;1.90;99.90
20498;DHT22;10407;53.238;10.448;2022-12-11T11:46:46;1.30;99.90
20498;DHT22;10407;53.238;10.448;2022-12-11T11:49:02;1.40;99.90
20498;DHT22;10407;53.238;10.448;2022-12-11T11:51:26;1.00;99.90
20498;DHT22;10407;53.238;10.448;2022-12-11T11:53:57;1.30;99.90
20498;DHT22;10407;53.238;10.448;2022-12-11T11:56:30;1.70;99.90
20498;DHT22;10407;53.238;10.448;2022-12-11T11:59:28;1.70;99.90
20498;DHT22;10407;53.238;10.448;2022-12-11T12:01:57;1.80;99.90
20498;DHT22;10407;53.238;10.448;2022-12-11T12:04:28;1.80;99.90
20498;DHT22;10407;53.238;10.448;2022-12-11T12:07:28;1.80;99.90
20498;DHT22;10407;53.238;10.448;2022-12-11T12:12:48;0.90;99.90
20498;DHT22;10407;53.238;10.448;2022-12-11T12:18:00;0.90;99.90
20498;DHT22;10407;53.238;10.448;2022-12-11T12:26:17;1.20;99.90
20498;DHT22;10407;53.238;10.448;2022-12-11T12:29:24;0.90;99.90
20498;DHT22;10407;53.238;10.448;2022-12-11T12:34:45;0.80;99.90
20498;DHT22;10407;53.238;10.448;2022-12-11T12:40:19;0.70;99.90
20498;DHT22;10407;53.238;10.448;2022-12-11T12:43:09;1.00;99.90
20498;DHT22;10407;53.238;10.448;2022-12-11T12:45:49;0.40;99.90
20498;DHT22;10407;53.238;10.448;2022-12-11T12:48:16;0.60;99.90
20498;DHT22;10407;53.238;10.448;2022-12-11T12:50:45;0.50;99.90
20498;DHT22;10407;53.238;10.448;2022-12-11T12:53:17;0.80;99.90
20498;DHT22;10407;53.238;10.448;2022-12-11T12:55:45;1.30;99.90
20498;DHT22;10407;53.238;10.448;2022-12-11T12:58:27;1.30;99.90
20498;DHT22;10407;53.238;10.448;2022-12-11T13:01:09;0.70;99.90
20498;DHT22;10407;53.238;10.448;2022-12-11T13:03:49;0.30;99.90
20498;DHT22;10407;53.238;10.448;2022-12-11T13:06:38;0.20;99.90
20498;DHT22;10407;53.238;10.448;2022-12-11T13:09:23;0.90;99.90
20498;DHT22;10407;53.238;10.448;2022-12-11T13:11:54;1.30;99.90
20498;DHT22;10407;53.238;10.448;2022-12-11T13:14:27;0.80;99.90
20498;DHT22;10407;53.238;10.448;2022-12-11T13:20:12;0.80;99.90
20498;DHT22;10407;53.238;10.448;2022-12-11T13:22:54;1.00;99.90
20498;DHT22;10407;53.238;10.448;2022-12-11T13:25:25;1.30;99.90
20498;DHT22;10407;53.238;10.448;2022-12-11T13:28:03;1.30;99.90
20498;DHT22;10407;53.238;10.448;2022-12-11T13:30:24;1.20;99.90
20498;DHT22;10407;53.238;10.448;2022-12-11T13:35:32;1.30;99.90
20498;DHT22;10407;53.238;10.448;2022-12-11T13:38:06;1.30;99.90
20498;DHT22;10407;53.238;10.448;2022-12-11T13:40:42;1.30;99.90
20498;DHT22;10407;53.238;10.448;2022-12-11T13:43:27;1.20;99.90
20498;DHT22;10407;53.238;10.448;2022-12-11T13:46:00;1.20;99.90
20498;DHT22;10407;53.238;10.448;2022-12-11T13:48:47;1.10;99.90
20498;DHT22;10407;53.238;10.448;2022-12-11T13:51:20;1.10;99.90
20498;DHT22;10407;53.238;10.448;2022-12-11T13:53:47;1.10;99.90
20498;DHT22;10407;53.238;10.448;2022-12-11T13:56:19;1.10;99.90
20498;DHT22;10407;53.238;10.448;2022-12-11T13:58:48;1.20;99.90
20498;DHT22;10407;53.238;10.448;2022-12-11T14:01:21;0.90;99.90
20498;DHT22;10407;53.238;10.448;2022-12-11T14:04:06;0.70;99.90
20498;DHT22;10407;53.238;10.448;2022-12-11T14:06:33;0.50;99.90
20498;DHT22;10407;53.238;10.448;2022-12-11T14:09:03;0.40;99.90
20498;DHT22;10407;53.238;10.448;2022-12-11T14:11:36;0.50;99.90
20498;DHT22;10407;53.238;10.448;2022-12-11T14:14:17;0.30;99.90
20498;DHT22;10407;53.238;10.448;2022-12-11T14:16:35;0.90;99.90
20498;DHT22;10407;53.238;10.448;2022-12-11T14:19:05;0.70;99.90
20498;DHT22;10407;53.238;10.448;2022-12-11T14:21:35;0.40;99.90
20498;DHT22;10407;53.238;10.448;2022-12-11T14:24:03;0.90;99.90
20498;DHT22;10407;53.238;10.448;2022-12-11T14:26:34;0.80;99.90
20498;DHT22;10407;53.238;10.448;2022-12-11T14:29:04;0.70;99.90
20498;DHT22;10407;53.238;10.448;2022-12-11T14:31:38;0.80;99.90
20498;DHT22;10407;53.238;10.448;2022-12-11T14:34:27;1.00;99.90
20498;DHT22;10407;53.238;10.448;2022-12-11T14:36:51;1.00;99.90
20498;DHT22;10407;53.238;10.448;2022-12-11T14:39:23;1.00;99.90
20498;DHT22;10407;53.238;10.448;2022-12-11T14:42:09;1.10;99.90
20498;DHT22;10407;53.238;10.448;2022-12-11T14:47:26;0.90;99.90
20498;DHT22;10407;53.238;10.448;2022-12-11T14:50:17;0.60;99.90
20498;DHT22;10407;53.238;10.448;2022-12-11T14:52:45;0.50;99.90
20498;DHT22;10407;53.238;10.448;2022-12-11T14:55:23;0.40;99.90
20498;DHT22;10407;53.238;10.448;2022-12-11T14:57:58;0.50;99.90
20498;DHT22;10407;53.238;10.448;2022-12-11T15:00:32;0.80;99.90
20498;DHT22;10407;53.238;10.448;2022-12-11T15:03:04;0.80;99.90
20498;DHT22;10407;53.238;10.448;2022-12-11T15:05:33;0.70;99.90
20498;DHT22;10407;53.238;10.448;2022-12-11T15:10:52;0.80;99.90
20498;DHT22;10407;53.238;10.448;2022-12-11T15:13:10;0.90;99.90
20498;DHT22;10407;53.238;10.448;2022-12-11T15:15:44;1.00;99.90
20498;DHT22;10407;53.238;10.448;2022-12-11T15:18:24;1.10;99.90
20498;DHT22;10407;53.238;10.448;2022-12-11T15:20:58;1.00;99.90
20498;DHT22;10407;53.238;10.448;2022-12-11T15:23:22;1.10;99.90
20498;DHT22;10407;53.238;10.448;2022-12-11T15:25:52;1.10;99.90
20498;DHT22;10407;53.238;10.448;2022-12-11T15:28:37;0.50;99.90
20498;DHT22;10407;53.238;10.448;2022-12-11T15:31:21;0.50;99.90
20498;DHT22;10407;53.238;10.448;2022-12-11T15:33:44;0.70;99.90
20498;DHT22;10407;53.238;10.448;2022-12-11T15:36:18;0.80;99.90
20498;DHT22;10407;53.238;10.448;2022-12-11T15:38:38;0.80;99.90
20498;DHT22;10407;53.238;10.448;2022-12-11T15:41:16;0.70;99.90
20498;DHT22;10407;53.238;10.448;2022-12-11T15:43:46;0.70;99.90
20498;DHT22;10407;53.238;10.448;2022-12-11T15:46:14;0.60;99.90
20498;DHT22;10407;53.238;10.448;2022-12-11T15:48:41;0.40;99.90
20498;DHT22;10407;53.238;10.448;2022-12-11T15:51:09;0.50;99.90
20498;DHT22;10407;53.238;10.448;2022-12-11T15:53:37;0.30;99.90
20498;DHT22;10407;53.238;10.448;2022-12-11T15:56:05;0.30;99.90
20498;DHT22;10407;53.238;10.448;2022-12-11T15:58:33;0.50;99.90
20498;DHT22;10407;53.238;10.448;2022-12-11T16:01:01;0.70;99.90
20498;DHT22;10407;53.238;10.448;2022-12-11T16:03:29;0.60;99.90
20498;DHT22;10407;53.238;10.448;2022-12-11T16:05:57;0.80;99.90
20498;DHT22;10407;53.238;10.448;2022-12-11T16:08:24;0.50;99.90
20498;DHT22;10407;53.238;10.448;2022-12-11T16:10:53;0.10;99.90
20498;DHT22;10407;53.238;10.448;2022-12-11T16:13:22;0.50;99.90
20498;DHT22;10407;53.238;10.448;2022-12-11T16:15:50;0.50;99.90
20498;DHT22;10407;53.238;10.448;2022-12-11T16:18:22;0.60;99.90
20498;DHT22;10407;53.238;10.448;2022-12-11T16:20:52;0.50;99.90
20498;DHT22;10407;53.238;10.448;2022-12-11T16:23:19;0.50;99.90
20498;DHT22;10407;53.238;10.448;2022-12-11T16:25:47;0.90;99.90
20498;DHT22;10407;53.238;10.448;2022-12-11T16:28:17;0.50;99.90
20498;DHT22;10407;53.238;10.448;2022-12-11T16:30:46;0.20;99.90
20498;DHT22;10407;53.238;10.448;2022-12-11T16:33:15;0.20;99.90
20498;DHT22;10407;53.238;10.448;2022-12-11T16:35:42;0.20;99.90
20498;DHT22;10407;53.238;10.448;2022-12-11T16:38:10;0.30;99.90
20498;DHT22;10407;53.238;10.448;2022-12-11T16:40:39;0.30;99.90
20498;DHT22;10407;53.238;10.448;2022-12-11T16:43:07;0.60;99.90
20498;DHT22;10407;53.238;10.448;2022-12-11T16:45:34;0.50;99.90
20498;DHT22;10407;53.238;10.448;2022-12-11T16:48:03;0.60;99.90
20498;DHT22;10407;53.238;10.448;2022-12-11T16:50:31;0.30;99.90
20498;DHT22;10407;53.238;10.448;2022-12-11T16:52:59;0.10;99.90
20498;DHT22;10407;53.238;10.448;2022-12-11T16:55:26;0.20;99.90
20498;DHT22;10407;53.238;10.448;2022-12-11T16:57:54;0.50;99.90
20498;DHT22;10407;53.238;10.448;2022-12-11T17:00:21;0.30;99.90
20498;DHT22;10407;53.238;10.448;2022-12-11T17:02:49;0.50;99.90